sensor_id;sensor_type;location;lat;lon;timestamp;temperature;humidity
16511;DHT22;8368;48.772;8.754;2023-08-06T00:00:02;12.20;99.90
16511;DHT22;8368;48.772;8.754;2023-08-06T00:02:28;12.10;99.90
16511;DHT22;8368;48.772;8.754;2023-08-06T00:04:54;12.10;99.90
16511;DHT22;8368;48.772;8.754;2023-08-06T00:07:19;12.20;99.90
16511;DHT22;8368;48.772;8.754;2023-08-06T00:09:45;12.20;99.90
16511;DHT22;8368;48.772;8.754;2023-08-06T00:12:10;12.20;99.90
16511;DHT22;8368;48.772;8.754;2023-08-06T00:14:36;12.20;99.90
16511;DHT22;8368;48.772;8.754;2023-08-06T00:17:01;12.20;99.90
16511;DHT22;8368;48.772;8.754;2023-08-06T00:19:27;12.10;99.90
16511;DHT22;8368;48.772;8.754;2023-08-06T00:21:52;12.10;99.90
16511;DHT22;8368;48.772;8.754;2023-08-06T00:24:18;12.10;99.90
16511;DHT22;8368;48.772;8.754;2023-08-06T00:26:44;12.10;99.90
16511;DHT22;8368;48.772;8.754;2023-08-06T00:29:09;12.10;99.90
16511;DHT22;8368;48.772;8.754;2023-08-06T00:31:34;12.10;99.90
16511;DHT22;8368;48.772;8.754;2023-08-06T00:34:00;12.10;99.90
16511;DHT22;8368;48.772;8.754;2023-08-06T00:36:25;12.10;99.90
16511;DHT22;8368;48.772;8.754;2023-08-06T00:38:51;12.10;99.90
16511;DHT22;8368;48.772;8.754;2023-08-06T00:41:17;12.00;99.90
16511;DHT22;8368;48.772;8.754;2023-08-06T00:43:43;12.00;99.90
16511;DHT22;8368;48.772;8.754;2023-08-06T00:46:08;12.00;99.90
16511;DHT22;8368;48.772;8.754;2023-08-06T00:48:34;12.00;99.90
16511;DHT22;8368;48.772;8.754;2023-08-06T00:51:00;12.00;99.90
16511;DHT22;8368;48.772;8.754;2023-08-06T00:53:26;12.00;99.90
16511;DHT22;8368;48.772;8.754;2023-08-06T00:55:52;12.00;99.90
16511;DHT22;8368;48.772;8.754;2023-08-06T00:58:18;12.00;99.90
16511;DHT22;8368;48.772;8.754;2023-08-06T01:00:44;11.90;99.90
16511;DHT22;8368;48.772;8.754;2023-08-06T01:03:09;11.80;99.90
16511;DHT22;8368;48.772;8.754;2023-08-06T01:05:35;11.80;99.90
16511;DHT22;8368;48.772;8.754;2023-08-06T01:08:35;11.70;99.90
16511;DHT22;8368;48.772;8.754;2023-08-06T01:16:51;11.70;99.90
16511;DHT22;8368;48.772;8.754;2023-08-06T01:19:21;11.70;99.90
16511;DHT22;8368;48.772;8.754;2023-08-06T01:21:46;11.70;99.90
16511;DHT22;8368;48.772;8.754;2023-08-06T01:24:12;11.70;99.90
16511;DHT22;8368;48.772;8.754;2023-08-06T01:26:42;11.80;99.90
16511;DHT22;8368;48.772;8.754;2023-08-06T01:29:30;11.80;99.90
16511;DHT22;8368;48.772;8.754;2023-08-06T01:31:57;11.80;99.90
16511;DHT22;8368;48.772;8.754;2023-08-06T01:34:27;11.80;99.90
16511;DHT22;8368;48.772;8.754;2023-08-06T01:36:53;11.90;99.90
16511;DHT22;8368;48.772;8.754;2023-08-06T01:39:19;11.90;99.90
16511;DHT22;8368;48.772;8.754;2023-08-06T01:41:50;11.90;99.90
16511;DHT22;8368;48.772;8.754;2023-08-06T01:44:16;11.90;99.90
16511;DHT22;8368;48.772;8.754;2023-08-06T01:46:42;11.90;99.90
16511;DHT22;8368;48.772;8.754;2023-08-06T01:49:07;11.90;99.90
16511;DHT22;8368;48.772;8.754;2023-08-06T01:51:33;11.90;99.90
16511;DHT22;8368;48.772;8.754;2023-08-06T01:53:58;11.90;99.90
16511;DHT22;8368;48.772;8.754;2023-08-06T01:56:24;11.90;99.90
16511;DHT22;8368;48.772;8.754;2023-08-06T01:58:49;11.90;99.90
16511;DHT22;8368;48.772;8.754;2023-08-06T02:01:15;11.90;99.90
16511;DHT22;8368;48.772;8.754;2023-08-06T02:03:40;11.90;99.90
16511;DHT22;8368;48.772;8.754;2023-08-06T02:06:06;12.00;99.90
16511;DHT22;8368;48.772;8.754;2023-08-06T02:08:32;12.00;99.90
16511;DHT22;8368;48.772;8.754;2023-08-06T02:10:57;12.00;99.90
16511;DHT22;8368;48.772;8.754;2023-08-06T02:13:23;12.00;99.90
16511;DHT22;8368;48.772;8.754;2023-08-06T02:15:49;12.00;99.90
16511;DHT22;8368;48.772;8.754;2023-08-06T02:18:15;12.00;99.90
16511;DHT22;8368;48.772;8.754;2023-08-06T02:20:41;12.00;99.90
16511;DHT22;8368;48.772;8.754;2023-08-06T02:23:07;12.00;99.90
16511;DHT22;8368;48.772;8.754;2023-08-06T02:25:32;12.10;99.90
16511;DHT22;8368;48.772;8.754;2023-08-06T02:27:58;12.10;99.90
16511;DHT22;8368;48.772;8.754;2023-08-06T02:30:23;12.20;99.90
16511;DHT22;8368;48.772;8.754;2023-08-06T02:32:49;12.20;99.90
16511;DHT22;8368;48.772;8.754;2023-08-06T02:35:15;12.20;99.90
16511;DHT22;8368;48.772;8.754;2023-08-06T02:37:40;12.20;99.90
16511;DHT22;8368;48.772;8.754;2023-08-06T02:40:06;12.30;99.90
16511;DHT22;8368;48.772;8.754;2023-08-06T02:42:32;12.30;99.90
16511;DHT22;8368;48.772;8.754;2023-08-06T02:44:57;12.40;99.90
16511;DHT22;8368;48.772;8.754;2023-08-06T02:47:23;12.40;99.90
16511;DHT22;8368;48.772;8.754;2023-08-06T02:49:49;12.50;99.90
16511;DHT22;8368;48.772;8.754;2023-08-06T02:52:14;12.50;99.90
16511;DHT22;8368;48.772;8.754;2023-08-06T02:54:40;12.50;99.90
16511;DHT22;8368;48.772;8.754;2023-08-06T02:57:05;12.60;99.90
16511;DHT22;8368;48.772;8.754;2023-08-06T02:59:32;12.60;99.90
16511;DHT22;8368;48.772;8.754;2023-08-06T03:01:57;12.60;99.90
16511;DHT22;8368;48.772;8.754;2023-08-06T03:04:23;12.60;99.90
16511;DHT22;8368;48.772;8.754;2023-08-06T03:06:49;12.60;99.90
16511;DHT22;8368;48.772;8.754;2023-08-06T03:09:16;12.60;99.90
16511;DHT22;8368;48.772;8.754;2023-08-06T03:11:41;12.60;99.90
16511;DHT22;8368;48.772;8.754;2023-08-06T03:14:07;12.50;99.90
16511;DHT22;8368;48.772;8.754;2023-08-06T03:16:32;12.50;99.90
16511;DHT22;8368;48.772;8.754;2023-08-06T03:18:58;12.50;99.90
16511;DHT22;8368;48.772;8.754;2023-08-06T03:21:23;12.50;99.90
16511;DHT22;8368;48.772;8.754;2023-08-06T03:23:49;12.50;99.90
16511;DHT22;8368;48.772;8.754;2023-08-06T03:26:14;12.50;99.90
16511;DHT22;8368;48.772;8.754;2023-08-06T03:28:40;12.50;99.90
16511;DHT22;8368;48.772;8.754;2023-08-06T03:31:05;12.40;99.90
16511;DHT22;8368;48.772;8.754;2023-08-06T03:33:31;12.40;99.90
16511;DHT22;8368;48.772;8.754;2023-08-06T03:35:57;12.50;99.90
16511;DHT22;8368;48.772;8.754;2023-08-06T03:38:22;12.50;99.90
16511;DHT22;8368;48.772;8.754;2023-08-06T03:40:49;12.50;99.90
16511;DHT22;8368;48.772;8.754;2023-08-06T03:43:14;12.50;99.90
16511;DHT22;8368;48.772;8.754;2023-08-06T03:45:40;12.50;99.90
16511;DHT22;8368;48.772;8.754;2023-08-06T03:48:07;12.50;99.90
16511;DHT22;8368;48.772;8.754;2023-08-06T03:50:33;12.50;99.90
16511;DHT22;8368;48.772;8.754;2023-08-06T03:52:58;12.50;99.90
16511;DHT22;8368;48.772;8.754;2023-08-06T03:55:24;12.50;99.90
16511;DHT22;8368;48.772;8.754;2023-08-06T03:57:49;12.60;99.90
16511;DHT22;8368;48.772;8.754;2023-08-06T04:00:15;12.60;99.90
16511;DHT22;8368;48.772;8.754;2023-08-06T04:02:41;12.60;99.90
16511;DHT22;8368;48.772;8.754;2023-08-06T04:05:07;12.60;99.90
16511;DHT22;8368;48.772;8.754;2023-08-06T04:07:32;12.70;99.90
16511;DHT22;8368;48.772;8.754;2023-08-06T04:10:00;12.70;99.90
16511;DHT22;8368;48.772;8.754;2023-08-06T04:12:26;12.60;99.90
16511;DHT22;8368;48.772;8.754;2023-08-06T04:14:52;12.50;99.90
16511;DHT22;8368;48.772;8.754;2023-08-06T04:17:19;12.50;99.90
16511;DHT22;8368;48.772;8.754;2023-08-06T04:19:47;12.50;99.90
16511;DHT22;8368;48.772;8.754;2023-08-06T04:22:13;12.40;99.90
16511;DHT22;8368;48.772;8.754;2023-08-06T04:24:38;12.40;99.90
16511;DHT22;8368;48.772;8.754;2023-08-06T04:27:04;12.30;99.90
16511;DHT22;8368;48.772;8.754;2023-08-06T04:29:30;12.30;99.90
16511;DHT22;8368;48.772;8.754;2023-08-06T04:31:55;12.30;99.90
16511;DHT22;8368;48.772;8.754;2023-08-06T04:34:21;12.30;99.90
16511;DHT22;8368;48.772;8.754;2023-08-06T04:36:46;12.20;99.90
16511;DHT22;8368;48.772;8.754;2023-08-06T04:39:12;12.20;99.90
16511;DHT22;8368;48.772;8.754;2023-08-06T04:41:37;12.20;99.90
16511;DHT22;8368;48.772;8.754;2023-08-06T04:44:03;12.10;99.90
16511;DHT22;8368;48.772;8.754;2023-08-06T04:46:29;12.10;99.90
16511;DHT22;8368;48.772;8.754;2023-08-06T04:48:55;12.10;99.90
16511;DHT22;8368;48.772;8.754;2023-08-06T04:51:20;12.20;99.90
16511;DHT22;8368;48.772;8.754;2023-08-06T04:53:46;12.20;99.90
16511;DHT22;8368;48.772;8.754;2023-08-06T04:56:11;12.20;99.90
16511;DHT22;8368;48.772;8.754;2023-08-06T04:58:37;12.30;99.90
16511;DHT22;8368;48.772;8.754;2023-08-06T05:01:02;12.30;99.90
16511;DHT22;8368;48.772;8.754;2023-08-06T05:03:28;12.40;99.90
16511;DHT22;8368;48.772;8.754;2023-08-06T05:05:54;12.40;99.90
16511;DHT22;8368;48.772;8.754;2023-08-06T05:08:20;12.50;99.90
16511;DHT22;8368;48.772;8.754;2023-08-06T05:10:46;12.50;99.90
16511;DHT22;8368;48.772;8.754;2023-08-06T05:13:11;12.60;99.90
16511;DHT22;8368;48.772;8.754;2023-08-06T05:15:37;12.60;99.90
16511;DHT22;8368;48.772;8.754;2023-08-06T05:18:04;12.70;99.90
16511;DHT22;8368;48.772;8.754;2023-08-06T05:20:29;12.70;99.90
16511;DHT22;8368;48.772;8.754;2023-08-06T05:22:55;12.70;99.90
16511;DHT22;8368;48.772;8.754;2023-08-06T05:25:20;12.70;99.90
16511;DHT22;8368;48.772;8.754;2023-08-06T05:27:46;12.70;99.90
16511;DHT22;8368;48.772;8.754;2023-08-06T05:30:11;12.80;99.90
16511;DHT22;8368;48.772;8.754;2023-08-06T05:32:37;12.80;99.90
16511;DHT22;8368;48.772;8.754;2023-08-06T05:35:03;12.80;99.90
16511;DHT22;8368;48.772;8.754;2023-08-06T05:37:28;12.90;99.90
16511;DHT22;8368;48.772;8.754;2023-08-06T05:39:54;12.90;99.90
16511;DHT22;8368;48.772;8.754;2023-08-06T05:42:19;12.80;99.90
16511;DHT22;8368;48.772;8.754;2023-08-06T05:44:45;12.80;99.90
16511;DHT22;8368;48.772;8.754;2023-08-06T05:47:10;12.90;99.90
16511;DHT22;8368;48.772;8.754;2023-08-06T05:49:36;12.90;99.90
16511;DHT22;8368;48.772;8.754;2023-08-06T05:52:02;12.90;99.90
16511;DHT22;8368;48.772;8.754;2023-08-06T05:54:31;13.00;99.90
16511;DHT22;8368;48.772;8.754;2023-08-06T05:56:57;13.00;99.90
16511;DHT22;8368;48.772;8.754;2023-08-06T05:59:22;13.10;99.90
16511;DHT22;8368;48.772;8.754;2023-08-06T06:01:48;13.20;99.90
16511;DHT22;8368;48.772;8.754;2023-08-06T06:04:13;13.20;99.90
16511;DHT22;8368;48.772;8.754;2023-08-06T06:06:39;13.10;99.90
16511;DHT22;8368;48.772;8.754;2023-08-06T06:09:04;13.10;99.90
16511;DHT22;8368;48.772;8.754;2023-08-06T06:11:30;13.10;99.90
16511;DHT22;8368;48.772;8.754;2023-08-06T06:13:55;13.20;99.90
16511;DHT22;8368;48.772;8.754;2023-08-06T06:16:21;13.10;99.90
16511;DHT22;8368;48.772;8.754;2023-08-06T06:18:46;13.10;99.90
16511;DHT22;8368;48.772;8.754;2023-08-06T06:21:12;13.20;99.90
16511;DHT22;8368;48.772;8.754;2023-08-06T06:23:37;13.10;99.90
16511;DHT22;8368;48.772;8.754;2023-08-06T06:26:03;13.20;99.90
16511;DHT22;8368;48.772;8.754;2023-08-06T06:28:28;13.10;99.90
16511;DHT22;8368;48.772;8.754;2023-08-06T06:31:00;13.20;99.90
16511;DHT22;8368;48.772;8.754;2023-08-06T06:33:26;13.10;99.90
16511;DHT22;8368;48.772;8.754;2023-08-06T06:35:51;13.20;99.90
16511;DHT22;8368;48.772;8.754;2023-08-06T06:38:17;13.20;99.90
16511;DHT22;8368;48.772;8.754;2023-08-06T06:40:42;13.20;99.90
16511;DHT22;8368;48.772;8.754;2023-08-06T06:43:08;13.20;99.90
16511;DHT22;8368;48.772;8.754;2023-08-06T06:45:33;13.20;99.90
16511;DHT22;8368;48.772;8.754;2023-08-06T06:47:59;13.20;99.90
16511;DHT22;8368;48.772;8.754;2023-08-06T06:50:24;13.10;99.90
16511;DHT22;8368;48.772;8.754;2023-08-06T06:52:51;13.10;99.90
16511;DHT22;8368;48.772;8.754;2023-08-06T06:55:17;13.10;99.90
16511;DHT22;8368;48.772;8.754;2023-08-06T06:57:42;13.10;99.90
16511;DHT22;8368;48.772;8.754;2023-08-06T07:00:08;13.10;99.90
16511;DHT22;8368;48.772;8.754;2023-08-06T07:02:34;13.20;99.90
16511;DHT22;8368;48.772;8.754;2023-08-06T07:04:59;13.20;99.90
16511;DHT22;8368;48.772;8.754;2023-08-06T07:07:25;13.20;99.90
16511;DHT22;8368;48.772;8.754;2023-08-06T07:09:50;13.20;99.90
16511;DHT22;8368;48.772;8.754;2023-08-06T07:12:16;13.20;99.90
16511;DHT22;8368;48.772;8.754;2023-08-06T07:14:41;13.20;99.90
16511;DHT22;8368;48.772;8.754;2023-08-06T07:17:07;13.20;99.90
16511;DHT22;8368;48.772;8.754;2023-08-06T07:19:32;13.10;99.90
16511;DHT22;8368;48.772;8.754;2023-08-06T07:21:58;13.10;99.90
16511;DHT22;8368;48.772;8.754;2023-08-06T07:24:23;13.10;99.90
16511;DHT22;8368;48.772;8.754;2023-08-06T07:26:49;13.10;99.90
16511;DHT22;8368;48.772;8.754;2023-08-06T07:29:14;13.10;99.90
16511;DHT22;8368;48.772;8.754;2023-08-06T07:31:45;13.10;99.90
16511;DHT22;8368;48.772;8.754;2023-08-06T07:34:10;13.20;99.90
16511;DHT22;8368;48.772;8.754;2023-08-06T07:36:36;13.30;99.90
16511;DHT22;8368;48.772;8.754;2023-08-06T07:39:01;13.40;99.90
16511;DHT22;8368;48.772;8.754;2023-08-06T07:41:27;13.50;99.90
16511;DHT22;8368;48.772;8.754;2023-08-06T07:43:52;13.70;99.90
16511;DHT22;8368;48.772;8.754;2023-08-06T07:46:18;13.80;99.90
16511;DHT22;8368;48.772;8.754;2023-08-06T07:48:43;13.90;99.90
16511;DHT22;8368;48.772;8.754;2023-08-06T07:51:09;14.00;99.90
16511;DHT22;8368;48.772;8.754;2023-08-06T07:53:34;13.90;99.90
16511;DHT22;8368;48.772;8.754;2023-08-06T07:56:00;13.90;99.90
16511;DHT22;8368;48.772;8.754;2023-08-06T07:58:27;13.80;99.90
16511;DHT22;8368;48.772;8.754;2023-08-06T08:00:55;13.80;99.90
16511;DHT22;8368;48.772;8.754;2023-08-06T08:03:20;13.90;99.90
16511;DHT22;8368;48.772;8.754;2023-08-06T08:05:46;13.90;99.90
16511;DHT22;8368;48.772;8.754;2023-08-06T08:08:12;13.90;99.90
16511;DHT22;8368;48.772;8.754;2023-08-06T08:10:37;13.90;99.90
16511;DHT22;8368;48.772;8.754;2023-08-06T08:13:04;14.00;99.90
16511;DHT22;8368;48.772;8.754;2023-08-06T08:15:30;14.10;99.90
16511;DHT22;8368;48.772;8.754;2023-08-06T08:17:56;14.10;99.90
16511;DHT22;8368;48.772;8.754;2023-08-06T08:20:22;14.00;99.90
16511;DHT22;8368;48.772;8.754;2023-08-06T08:22:48;14.00;99.90
16511;DHT22;8368;48.772;8.754;2023-08-06T08:25:13;14.00;99.90
16511;DHT22;8368;48.772;8.754;2023-08-06T08:27:39;14.10;99.90
16511;DHT22;8368;48.772;8.754;2023-08-06T08:30:05;14.10;99.90
16511;DHT22;8368;48.772;8.754;2023-08-06T08:32:31;14.10;99.90
16511;DHT22;8368;48.772;8.754;2023-08-06T08:34:57;14.10;99.90
16511;DHT22;8368;48.772;8.754;2023-08-06T08:37:23;14.10;99.90
16511;DHT22;8368;48.772;8.754;2023-08-06T08:39:49;14.10;99.90
16511;DHT22;8368;48.772;8.754;2023-08-06T08:42:16;14.10;99.90
16511;DHT22;8368;48.772;8.754;2023-08-06T08:44:42;14.20;99.90
16511;DHT22;8368;48.772;8.754;2023-08-06T08:47:08;14.30;99.90
16511;DHT22;8368;48.772;8.754;2023-08-06T08:49:35;14.40;99.90
16511;DHT22;8368;48.772;8.754;2023-08-06T08:52:02;14.50;99.90
16511;DHT22;8368;48.772;8.754;2023-08-06T08:54:28;14.50;99.90
16511;DHT22;8368;48.772;8.754;2023-08-06T08:56:56;14.70;99.90
16511;DHT22;8368;48.772;8.754;2023-08-06T08:59:22;14.50;99.90
16511;DHT22;8368;48.772;8.754;2023-08-06T09:01:48;14.50;99.90
16511;DHT22;8368;48.772;8.754;2023-08-06T09:04:18;14.40;99.90
16511;DHT22;8368;48.772;8.754;2023-08-06T09:06:46;14.40;99.90
16511;DHT22;8368;48.772;8.754;2023-08-06T09:09:17;14.20;99.90
16511;DHT22;8368;48.772;8.754;2023-08-06T09:11:48;14.20;99.90
16511;DHT22;8368;48.772;8.754;2023-08-06T09:14:15;14.20;99.90
16511;DHT22;8368;48.772;8.754;2023-08-06T09:16:40;14.10;99.90
16511;DHT22;8368;48.772;8.754;2023-08-06T09:19:12;14.20;99.90
16511;DHT22;8368;48.772;8.754;2023-08-06T09:21:39;14.10;99.90
16511;DHT22;8368;48.772;8.754;2023-08-06T09:24:12;14.10;99.90
16511;DHT22;8368;48.772;8.754;2023-08-06T09:26:43;14.10;99.90
16511;DHT22;8368;48.772;8.754;2023-08-06T09:29:10;14.00;99.90
16511;DHT22;8368;48.772;8.754;2023-08-06T09:31:50;13.90;99.90
16511;DHT22;8368;48.772;8.754;2023-08-06T09:34:20;13.80;99.90
16511;DHT22;8368;48.772;8.754;2023-08-06T09:36:50;13.80;99.90
16511;DHT22;8368;48.772;8.754;2023-08-06T09:39:27;13.70;99.90
16511;DHT22;8368;48.772;8.754;2023-08-06T09:41:56;13.70;99.90
16511;DHT22;8368;48.772;8.754;2023-08-06T09:44:24;13.70;99.90
16511;DHT22;8368;48.772;8.754;2023-08-06T09:46:55;13.60;99.90
16511;DHT22;8368;48.772;8.754;2023-08-06T09:49:40;13.50;99.90
16511;DHT22;8368;48.772;8.754;2023-08-06T09:52:14;13.50;99.90
16511;DHT22;8368;48.772;8.754;2023-08-06T09:54:43;13.50;99.90
16511;DHT22;8368;48.772;8.754;2023-08-06T09:57:09;13.50;99.90
16511;DHT22;8368;48.772;8.754;2023-08-06T09:59:37;13.60;99.90
16511;DHT22;8368;48.772;8.754;2023-08-06T10:02:12;13.70;99.90
16511;DHT22;8368;48.772;8.754;2023-08-06T10:04:38;13.80;99.90
16511;DHT22;8368;48.772;8.754;2023-08-06T10:07:04;13.80;99.90
16511;DHT22;8368;48.772;8.754;2023-08-06T10:09:30;13.90;99.90
16511;DHT22;8368;48.772;8.754;2023-08-06T10:11:56;14.00;99.90
16511;DHT22;8368;48.772;8.754;2023-08-06T10:14:26;14.10;99.90
16511;DHT22;8368;48.772;8.754;2023-08-06T10:16:54;14.00;99.90
16511;DHT22;8368;48.772;8.754;2023-08-06T10:19:22;13.90;99.90
16511;DHT22;8368;48.772;8.754;2023-08-06T10:22:13;13.80;99.90
16511;DHT22;8368;48.772;8.754;2023-08-06T10:24:52;13.70;99.90
16511;DHT22;8368;48.772;8.754;2023-08-06T10:30:31;13.80;99.90
16511;DHT22;8368;48.772;8.754;2023-08-06T10:33:07;13.70;99.90
16511;DHT22;8368;48.772;8.754;2023-08-06T10:35:40;13.70;99.90
16511;DHT22;8368;48.772;8.754;2023-08-06T10:38:17;13.70;99.90
16511;DHT22;8368;48.772;8.754;2023-08-06T10:43:32;13.60;99.90
16511;DHT22;8368;48.772;8.754;2023-08-06T10:46:01;13.60;99.90
16511;DHT22;8368;48.772;8.754;2023-08-06T10:48:34;13.60;99.90
16511;DHT22;8368;48.772;8.754;2023-08-06T10:51:01;13.60;99.90
16511;DHT22;8368;48.772;8.754;2023-08-06T10:53:27;13.70;99.90
16511;DHT22;8368;48.772;8.754;2023-08-06T10:55:52;13.70;99.90
16511;DHT22;8368;48.772;8.754;2023-08-06T10:58:18;13.60;99.90
16511;DHT22;8368;48.772;8.754;2023-08-06T11:00:43;13.40;99.90
16511;DHT22;8368;48.772;8.754;2023-08-06T11:03:09;13.20;99.90
16511;DHT22;8368;48.772;8.754;2023-08-06T11:05:36;13.00;99.90
16511;DHT22;8368;48.772;8.754;2023-08-06T11:08:02;13.00;99.90
16511;DHT22;8368;48.772;8.754;2023-08-06T11:10:28;12.90;99.90
16511;DHT22;8368;48.772;8.754;2023-08-06T11:12:53;12.90;99.90
16511;DHT22;8368;48.772;8.754;2023-08-06T11:15:20;12.90;99.90
16511;DHT22;8368;48.772;8.754;2023-08-06T11:17:46;13.00;99.90
16511;DHT22;8368;48.772;8.754;2023-08-06T11:20:12;12.90;99.90
16511;DHT22;8368;48.772;8.754;2023-08-06T11:22:38;12.90;99.90
16511;DHT22;8368;48.772;8.754;2023-08-06T11:25:05;12.80;99.90
16511;DHT22;8368;48.772;8.754;2023-08-06T11:27:31;12.70;99.90
16511;DHT22;8368;48.772;8.754;2023-08-06T11:29:56;12.60;99.90
16511;DHT22;8368;48.772;8.754;2023-08-06T11:32:22;12.60;99.90
16511;DHT22;8368;48.772;8.754;2023-08-06T11:34:48;12.60;99.90
16511;DHT22;8368;48.772;8.754;2023-08-06T11:37:13;12.60;99.90
16511;DHT22;8368;48.772;8.754;2023-08-06T11:39:46;12.50;99.90
16511;DHT22;8368;48.772;8.754;2023-08-06T11:42:12;12.50;99.90
16511;DHT22;8368;48.772;8.754;2023-08-06T11:44:37;12.50;99.90
16511;DHT22;8368;48.772;8.754;2023-08-06T11:47:05;12.40;99.90
16511;DHT22;8368;48.772;8.754;2023-08-06T11:52:23;12.50;99.90
16511;DHT22;8368;48.772;8.754;2023-08-06T11:55:06;12.40;99.90
16511;DHT22;8368;48.772;8.754;2023-08-06T11:57:33;12.30;99.90
16511;DHT22;8368;48.772;8.754;2023-08-06T12:00:09;12.20;99.90
16511;DHT22;8368;48.772;8.754;2023-08-06T12:02:35;12.10;99.90
16511;DHT22;8368;48.772;8.754;2023-08-06T12:05:16;12.10;99.90
16511;DHT22;8368;48.772;8.754;2023-08-06T12:07:45;12.20;99.90
16511;DHT22;8368;48.772;8.754;2023-08-06T12:10:11;12.20;99.90
16511;DHT22;8368;48.772;8.754;2023-08-06T12:12:37;12.20;99.90
16511;DHT22;8368;48.772;8.754;2023-08-06T12:15:04;12.20;99.90
16511;DHT22;8368;48.772;8.754;2023-08-06T12:17:31;12.30;99.90
16511;DHT22;8368;48.772;8.754;2023-08-06T12:19:57;12.30;99.90
16511;DHT22;8368;48.772;8.754;2023-08-06T12:22:23;12.50;99.90
16511;DHT22;8368;48.772;8.754;2023-08-06T12:24:48;12.60;99.90
16511;DHT22;8368;48.772;8.754;2023-08-06T12:27:14;12.60;99.90
16511;DHT22;8368;48.772;8.754;2023-08-06T12:29:47;12.70;99.90
16511;DHT22;8368;48.772;8.754;2023-08-06T12:32:13;12.70;99.90
16511;DHT22;8368;48.772;8.754;2023-08-06T12:34:42;12.70;99.90
16511;DHT22;8368;48.772;8.754;2023-08-06T12:37:08;12.70;99.90
16511;DHT22;8368;48.772;8.754;2023-08-06T12:39:35;12.70;99.90
16511;DHT22;8368;48.772;8.754;2023-08-06T12:42:01;12.70;99.90
16511;DHT22;8368;48.772;8.754;2023-08-06T12:44:27;12.70;99.90
16511;DHT22;8368;48.772;8.754;2023-08-06T12:46:53;12.60;99.90
16511;DHT22;8368;48.772;8.754;2023-08-06T12:49:20;12.80;99.90
16511;DHT22;8368;48.772;8.754;2023-08-06T12:51:49;12.90;99.90
16511;DHT22;8368;48.772;8.754;2023-08-06T12:54:17;12.90;99.90
16511;DHT22;8368;48.772;8.754;2023-08-06T12:56:43;13.00;99.90
16511;DHT22;8368;48.772;8.754;2023-08-06T12:59:09;13.00;99.90
16511;DHT22;8368;48.772;8.754;2023-08-06T13:01:34;13.20;99.90
16511;DHT22;8368;48.772;8.754;2023-08-06T13:04:00;13.30;99.90
16511;DHT22;8368;48.772;8.754;2023-08-06T13:06:25;13.60;99.90
16511;DHT22;8368;48.772;8.754;2023-08-06T13:08:51;13.80;99.90
16511;DHT22;8368;48.772;8.754;2023-08-06T13:11:16;14.00;99.90
16511;DHT22;8368;48.772;8.754;2023-08-06T13:13:42;13.90;99.90
16511;DHT22;8368;48.772;8.754;2023-08-06T13:16:08;13.90;99.90
16511;DHT22;8368;48.772;8.754;2023-08-06T13:18:33;13.70;99.90
16511;DHT22;8368;48.772;8.754;2023-08-06T13:20:59;13.60;99.90
16511;DHT22;8368;48.772;8.754;2023-08-06T13:23:24;13.50;99.90
16511;DHT22;8368;48.772;8.754;2023-08-06T13:25:50;13.50;99.90
16511;DHT22;8368;48.772;8.754;2023-08-06T13:28:16;13.50;99.90
16511;DHT22;8368;48.772;8.754;2023-08-06T13:30:41;13.50;99.90
16511;DHT22;8368;48.772;8.754;2023-08-06T13:33:11;13.50;99.90
16511;DHT22;8368;48.772;8.754;2023-08-06T13:35:37;13.40;99.90
16511;DHT22;8368;48.772;8.754;2023-08-06T13:38:02;13.40;99.90
16511;DHT22;8368;48.772;8.754;2023-08-06T13:40:28;13.30;99.90
16511;DHT22;8368;48.772;8.754;2023-08-06T13:42:55;13.20;99.90
16511;DHT22;8368;48.772;8.754;2023-08-06T13:45:20;13.30;99.90
16511;DHT22;8368;48.772;8.754;2023-08-06T13:47:46;13.50;99.90
16511;DHT22;8368;48.772;8.754;2023-08-06T13:50:12;13.70;99.90
16511;DHT22;8368;48.772;8.754;2023-08-06T13:52:38;13.80;99.90
16511;DHT22;8368;48.772;8.754;2023-08-06T13:55:05;13.90;99.90
16511;DHT22;8368;48.772;8.754;2023-08-06T13:57:30;14.00;99.90
16511;DHT22;8368;48.772;8.754;2023-08-06T13:59:56;13.90;99.90
16511;DHT22;8368;48.772;8.754;2023-08-06T14:02:22;13.80;99.90
16511;DHT22;8368;48.772;8.754;2023-08-06T14:04:48;13.60;99.90
16511;DHT22;8368;48.772;8.754;2023-08-06T14:07:13;13.50;99.90
16511;DHT22;8368;48.772;8.754;2023-08-06T14:09:39;13.60;99.90
16511;DHT22;8368;48.772;8.754;2023-08-06T14:12:05;13.70;99.90
16511;DHT22;8368;48.772;8.754;2023-08-06T14:14:31;13.70;99.90
16511;DHT22;8368;48.772;8.754;2023-08-06T14:16:57;13.70;99.90
16511;DHT22;8368;48.772;8.754;2023-08-06T14:19:23;13.60;99.90
16511;DHT22;8368;48.772;8.754;2023-08-06T14:21:49;13.40;99.90
16511;DHT22;8368;48.772;8.754;2023-08-06T14:24:14;13.00;99.90
16511;DHT22;8368;48.772;8.754;2023-08-06T14:26:40;12.80;99.90
16511;DHT22;8368;48.772;8.754;2023-08-06T14:29:06;12.70;99.90
16511;DHT22;8368;48.772;8.754;2023-08-06T14:31:31;12.80;99.90
16511;DHT22;8368;48.772;8.754;2023-08-06T14:33:57;12.80;99.90
16511;DHT22;8368;48.772;8.754;2023-08-06T14:36:22;12.70;99.90
16511;DHT22;8368;48.772;8.754;2023-08-06T14:38:48;12.60;99.90
16511;DHT22;8368;48.772;8.754;2023-08-06T14:41:13;12.70;99.90
16511;DHT22;8368;48.772;8.754;2023-08-06T14:43:39;12.90;99.90
16511;DHT22;8368;48.772;8.754;2023-08-06T14:46:04;13.20;99.90
16511;DHT22;8368;48.772;8.754;2023-08-06T14:48:30;13.20;99.90
16511;DHT22;8368;48.772;8.754;2023-08-06T14:50:56;13.50;99.90
16511;DHT22;8368;48.772;8.754;2023-08-06T14:53:22;13.70;99.90
16511;DHT22;8368;48.772;8.754;2023-08-06T14:55:47;13.80;99.90
16511;DHT22;8368;48.772;8.754;2023-08-06T14:58:13;13.70;99.90
16511;DHT22;8368;48.772;8.754;2023-08-06T15:00:39;13.60;99.90
16511;DHT22;8368;48.772;8.754;2023-08-06T15:03:04;13.60;99.90
16511;DHT22;8368;48.772;8.754;2023-08-06T15:05:30;14.00;99.90
16511;DHT22;8368;48.772;8.754;2023-08-06T15:07:55;14.00;99.90
16511;DHT22;8368;48.772;8.754;2023-08-06T15:10:21;13.90;99.90
16511;DHT22;8368;48.772;8.754;2023-08-06T15:12:47;13.80;99.90
16511;DHT22;8368;48.772;8.754;2023-08-06T15:15:13;13.80;99.90
16511;DHT22;8368;48.772;8.754;2023-08-06T15:17:38;13.70;99.90
16511;DHT22;8368;48.772;8.754;2023-08-06T15:20:04;13.90;99.90
16511;DHT22;8368;48.772;8.754;2023-08-06T15:22:30;14.00;99.90
16511;DHT22;8368;48.772;8.754;2023-08-06T15:25:02;14.20;99.90
16511;DHT22;8368;48.772;8.754;2023-08-06T15:27:29;14.50;99.90
16511;DHT22;8368;48.772;8.754;2023-08-06T15:29:55;14.70;99.90
16511;DHT22;8368;48.772;8.754;2023-08-06T15:32:21;14.70;99.90
16511;DHT22;8368;48.772;8.754;2023-08-06T15:34:48;14.70;99.90
16511;DHT22;8368;48.772;8.754;2023-08-06T15:37:13;14.70;99.90
16511;DHT22;8368;48.772;8.754;2023-08-06T15:39:39;14.70;99.90
16511;DHT22;8368;48.772;8.754;2023-08-06T15:42:06;14.50;99.90
16511;DHT22;8368;48.772;8.754;2023-08-06T15:44:31;14.20;99.90
16511;DHT22;8368;48.772;8.754;2023-08-06T15:46:57;14.00;99.90
16511;DHT22;8368;48.772;8.754;2023-08-06T15:49:22;13.80;99.90
16511;DHT22;8368;48.772;8.754;2023-08-06T15:51:48;13.70;99.90
16511;DHT22;8368;48.772;8.754;2023-08-06T15:54:13;13.60;99.90